Airfield :
LOGIN :

Register | Disclaimer

   EN    FR    IT 

 










Legend :    VFR   Marginal VFR   IFR   Intensive IFR   Very Intensive IFR
Visi :
Ceiling :
>= 8 km
>= 3000ft
5 to 8 km
1000 to 3000 ft
1500m to 5 km
500 to 1000 ft
800 to 1500m
200 to 500 ft
< 800m
< 200 ft
Symbols :   Thunderstorms  Fog  Heavy snow  Heavy precipitations  Wind > 20 kt
SIGMETs :     Misc.  Thunderstorms  Icing  Turbulence  Mountain Waves  Volcanic Ashes







- Airport Elevation : 1300 ft
- IATA code : LIG
- Download approach charts


LFBL - Limoges

CURRENT METAR :
  • 231400Z AUTO 23011KT 9999 OVC009 19/17 Q1021 TEMPO 29015G28KT 2000 -RADZ OVC003

EXPIRED METARs :
  • 231330Z AUTO 23009KT 9999 OVC009 19/17 Q1022 TEMPO 29015G28KT 2000 -RADZ OVC003
  • 231300Z AUTO 23011KT 9999 OVC008 19/17 Q1022 TEMPO 29015G28KT 2000 -RADZ OVC003
  • 231230Z AUTO 22011KT 200V260 9999 OVC004 18/17 Q1022 TEMPO 29015G28KT 2000 -RADZ BKN006
  • 231200Z AUTO 21014KT 9999 OVC004 18/17 Q1022 BECMG BKN006
  • 231130Z AUTO 22012KT 9999 OVC004 18/17 Q1023 BECMG BKN006

TAF TAF LFBL
Valid from the 23 at 12:00 until the 24 at 12:00 UTC


231100Z 2312/2412 22010KT 8000 BKN006
TEMPO 2314/2321 29015G28KT 2000 -RADZ OVC003
BECMG 2321/2323 01012KT BKN012
BECMG 2410/2412 SCT020
ATIS : +33 5 55 48 40 37
No reported NOTAMs for that airfield.



MET'MAP, your aeronautical weather chart ! - Copyright ORBIFLY December 2007 - Disclaimer

ORBIFLY MET'MAP TEAM :

Programming & Development : Alexandra Zaïnal
Concept & Development : Baudouin d'Aumeries
Co-Development & Prog : Marc-Olivier Méhu
Technical & hardware support : Manuel Goepfert

Contact : metmap@orbifly.com




SOURCES & CREDITS :

   NOAA